Time;durP1;ratioP1;P1;durP2;ratioP2;P2;SDS_P1;SDS_P2;PMS_P1;PMS_P2;Temp;Humidity;BMP_temperature;BMP_pressure;BME280_temperature;BME280_humidity;BME280_pressure;Samples;Min_cycle;Max_cycle;Signal;HPM_P1;HPM_P2
2022/02/03 00:01:14;;;;;;;2.75;2.28;;;;;;;-145.06;0.00;60892.56;4914233;28;20595;-89
2022/02/03 00:04:04;;;;;;;2.63;2.35;;;;;;;-145.06;0.00;60892.56;4906918;28;20029;-88
2022/02/03 00:06:53;;;;;;;3.03;2.53;;;;;;;-145.06;0.00;60892.56;4910548;28;20016;-88
2022/02/03 00:31:32;;;;;;;3.53;2.92;;;;;;;-145.06;0.00;60892.56;4906375;28;20068;-88
2022/02/03 00:33:48;;;;;;;4.20;3.38;;;;;;;-145.06;0.00;60892.56;4906386;28;20505;-89
2022/02/03 00:36:42;;;;;;;4.45;2.85;;;;;;;-145.06;0.00;60892.56;4914812;28;20037;-88
2022/02/03 00:48:32;;;;;;;4.75;2.42;;;;;;;-145.06;0.00;60892.56;4914280;28;20039;-88
2022/02/03 00:51:12;;;;;;;3.50;3.10;;;;;;;-145.06;0.00;60892.56;4912368;28;20020;-89
2022/02/03 00:53:51;;;;;;;;;;;;;;;-145.06;0.00;60892.56;4904415;28;20036;-88
2022/02/03 00:56:39;;;;;;;3.65;3.10;;;;;;;-145.06;0.00;60892.56;4921799;28;19920;-89
2022/02/03 00:59:40;;;;;;;4.55;2.78;;;;;;;-145.06;0.00;60892.56;4909209;28;20028;-88
2022/02/03 01:02:22;;;;;;;3.50;2.55;;;;;;;10.68;0.00;60892.56;4914457;28;20027;-89
2022/02/03 01:05:03;;;;;;;3.25;2.78;;;;;;;-145.06;0.00;60892.56;4896212;28;20032;-89
2022/02/03 01:07:49;;;;;;;2.30;2.10;;;;;;;-145.06;0.00;60892.56;4899752;28;20123;-88
2022/02/03 01:10:32;;;;;;;3.10;2.53;;;;;;;-145.06;0.00;60892.56;4911900;28;20024;-89
2022/02/03 01:13:21;;;;;;;3.20;2.20;;;;;;;-145.06;0.00;60892.56;4911659;28;20111;-88
2022/02/03 01:16:14;;;;;;;2.17;1.90;;;;;;;-145.06;0.00;60892.56;4913460;28;20012;-88
2022/02/03 01:45:21;;;;;;;2.37;2.00;;;;;;;-145.06;0.00;60892.56;4915713;28;20092;-88
2022/02/03 01:48:19;;;;;;;2.20;1.98;;;;;;;-145.06;0.00;60892.56;4903986;28;20282;-89
2022/02/03 01:53:58;;;;;;;2.22;1.80;;;;;;;-145.06;0.00;60892.56;4895300;28;20032;-88
2022/02/03 01:56:49;;;;;;;2.45;1.85;;;;;;;-145.06;0.00;60892.56;4912749;28;20366;-88
2022/02/03 01:59:28;;;;;;;1.88;1.70;;;;;;;-145.06;0.00;60892.56;4912939;28;20047;-88
2022/02/03 02:02:08;;;;;;;2.00;1.50;;;;;;;-145.06;0.00;60892.56;4898271;28;20032;-89
2022/02/03 02:05:03;;;;;;;2.10;1.83;;;;;;;-145.06;0.00;60892.56;4905037;28;20067;-88
2022/02/03 02:08:11;;;;;;;1.85;1.63;;;;;;;-145.06;0.00;60892.56;4905647;28;20040;-88
2022/02/03 02:11:14;;;;;;;2.13;1.63;;;;;;;-145.06;0.00;60892.56;4912715;28;20036;-88
2022/02/03 02:40:44;;;;;;;1.17;1.08;;;;;;;-145.06;0.00;60892.56;4891643;28;19916;-87
2022/02/03 02:43:48;;;;;;;1.60;1.38;;;;;;;-145.06;0.00;60892.56;4915313;28;20110;-87
2022/02/03 02:46:51;;;;;;;1.73;1.42;;;;;;;-145.06;0.00;60892.56;4912364;28;20021;-87
2022/02/03 02:49:49;;;;;;;2.10;1.60;;;;;;;-145.06;0.00;60892.56;4896032;28;20433;-87
2022/02/03 02:52:37;;;;;;;3.28;2.60;;;;;;;-145.06;0.00;60892.56;4910926;28;20040;-88
2022/02/03 02:58:20;;;;;;;3.67;2.45;;;;;;;-145.06;0.00;60892.56;4910172;28;20028;-88
2022/02/03 03:36:30;;;;;;;2.90;1.80;;;;;;;-145.06;0.00;60892.56;4913349;28;20541;-88
2022/02/03 03:39:12;;;;;;;2.35;1.60;;;;;;;-145.06;0.00;60892.56;4905326;28;20028;-87
2022/02/03 03:41:56;;;;;;;3.25;1.95;;;;;;;-145.06;0.00;60892.56;4902667;28;20036;-87
2022/02/03 03:44:37;;;;;;;3.70;2.40;;;;;;;-145.06;0.00;60892.56;4905645;28;20371;-88
2022/02/03 03:47:24;;;;;;;3.05;2.10;;;;;;;-145.06;0.00;60892.56;4910772;28;20036;-87
2022/02/03 03:50:14;;;;;;;3.30;1.85;;;;;;;-145.06;0.00;60892.56;4911363;28;20032;-87
2022/02/03 03:52:59;;;;;;;3.50;2.45;;;;;;;-145.06;0.00;60892.56;4910251;28;20028;-87
2022/02/03 04:58:57;;;;;;;1.38;1.10;;;;;;;-145.06;0.00;60892.56;4910131;28;20036;-87
2022/02/03 05:15:11;;;;;;;1.58;1.25;;;;;;;9.59;0.00;60892.56;4917893;28;20036;-87
2022/02/03 05:18:41;;;;;;;1.83;1.30;;;;;;;-145.06;0.00;60892.56;4910750;28;20486;-88
2022/02/03 05:25:42;;;;;;;0.80;0.80;;;;;;;-145.06;0.00;60892.56;4867448;28;19995;-88
2022/02/03 06:08:46;;;;;;;1.20;1.10;;;;;;;-145.06;0.00;60892.56;4909318;28;20040;-88
2022/02/03 06:14:34;;;;;;;0.90;0.82;;;;;;;9.50;0.00;60892.56;4907899;28;20024;-88
2022/02/03 06:17:30;;;;;;;1.08;0.98;;;;;;;-145.06;0.00;60892.56;4908743;28;20032;-88
2022/02/03 06:23:14;;;;;;;1.85;1.33;;;;;;;-145.06;0.00;60892.56;4905940;28;20489;-88
2022/02/03 06:28:51;;;;;;;2.10;1.45;;;;;;;-145.06;0.00;60892.56;4915206;28;20039;-88
2022/02/03 06:31:34;;;;;;;1.63;1.27;;;;;;;9.42;0.00;60892.56;4903121;28;20044;-87
2022/02/03 06:34:13;;;;;;;1.40;1.30;;;;;;;-145.06;0.00;60892.56;4906037;28;20485;-87
2022/02/03 06:36:54;;;;;;;1.67;1.08;;;;;;;-145.06;0.00;60892.56;4914300;28;20028;-88
2022/02/03 06:39:33;;;;;;;1.58;1.23;;;;;;;9.42;0.00;60892.56;4904654;28;20028;-88
2022/02/03 06:42:12;;;;;;;1.60;1.30;;;;;;;-145.06;0.00;60892.56;4905138;28;20032;-89
2022/02/03 06:44:59;;;;;;;3.00;1.50;;;;;;;-145.06;0.00;60892.56;4908224;28;20279;-88
2022/02/03 06:47:51;;;;;;;1.70;1.48;;;;;;;9.33;0.00;60892.56;4899633;28;20028;-88
2022/02/03 06:50:36;;;;;;;1.65;1.30;;;;;;;9.31;0.00;60892.56;4904229;28;20029;-88
2022/02/03 06:53:20;;;;;;;1.90;1.08;;;;;;;9.32;0.00;60892.56;4913942;28;20035;-88
2022/02/03 06:56:06;;;;;;;1.30;1.15;;;;;;;-145.06;0.00;60892.56;4907350;28;20024;-87
2022/02/03 06:58:51;;;;;;;1.50;1.30;;;;;;;-145.06;0.00;60892.56;4917170;28;20040;-87
2022/02/03 07:01:38;;;;;;;1.45;1.30;;;;;;;-145.06;0.00;60892.56;4905991;28;20036;-89
2022/02/03 07:04:22;;;;;;;1.48;1.30;;;;;;;-145.06;0.00;60892.56;4907052;28;20040;-88
2022/02/03 07:07:02;;;;;;;1.77;1.35;;;;;;;9.31;0.00;60892.56;4902935;28;20028;-87
2022/02/03 07:09:43;;;;;;;1.40;1.30;;;;;;;-145.06;0.00;60892.56;4894166;28;20048;-87
2022/02/03 07:12:22;;;;;;;1.42;1.25;;;;;;;-145.06;0.00;60892.56;4900745;28;20111;-87
2022/02/03 07:15:04;;;;;;;1.80;1.33;;;;;;;-145.06;0.00;60892.56;4902052;28;20032;-89
2022/02/03 07:17:44;;;;;;;1.42;1.05;;;;;;;9.33;0.00;60892.56;4896034;28;20051;-89
2022/02/03 07:20:25;;;;;;;1.10;1.00;;;;;;;-145.06;0.00;60892.56;4891661;28;20391;-88
2022/02/03 07:23:06;;;;;;;1.30;1.13;;;;;;;9.29;0.00;60892.56;4902021;28;20033;-88
2022/02/03 07:25:45;;;;;;;1.52;1.15;;;;;;;9.29;0.00;60892.56;4900517;28;20028;-89
2022/02/03 07:28:24;;;;;;;1.27;1.08;;;;;;;-145.06;0.00;60892.56;4902802;28;20059;-89
2022/02/03 07:31:02;;;;;;;0.95;0.80;;;;;;;9.27;0.00;60892.56;4903593;28;20032;-89
2022/02/03 07:33:41;;;;;;;1.30;0.80;;;;;;;9.28;0.00;60892.56;4899015;28;20446;-88
2022/02/03 07:36:21;;;;;;;2.60;1.03;;;;;;;-145.06;0.00;60892.56;4900901;28;20040;-89
2022/02/03 07:39:01;;;;;;;1.17;1.08;;;;;;;9.28;0.00;60892.56;4901047;28;20270;-89
2022/02/03 07:41:41;;;;;;;1.50;1.20;;;;;;;-145.06;0.00;60892.56;4897824;28;20650;-89
2022/02/03 07:44:20;;;;;;;1.20;0.98;;;;;;;-145.06;0.00;60892.56;4898533;28;20075;-88
2022/02/03 07:46:59;;;;;;;1.10;0.93;;;;;;;10.68;0.00;60892.56;4905542;28;20032;-89
2022/02/03 07:49:38;;;;;;;1.00;0.90;;;;;;;-145.06;0.00;60892.56;4902286;28;20254;-88
2022/02/03 07:52:17;;;;;;;1.43;1.00;;;;;;;-145.06;0.00;60892.56;4904180;28;20048;-87
2022/02/03 07:54:55;;;;;;;0.87;0.80;;;;;;;-145.06;0.00;60892.56;4903407;28;20634;-88
2022/02/03 07:57:35;;;;;;;1.10;0.93;;;;;;;9.32;0.00;60892.56;4899892;28;20249;-89
2022/02/03 08:00:15;;;;;;;1.10;0.90;;;;;;;9.35;0.00;60892.56;4902548;28;20269;-89
2022/02/03 08:02:55;;;;;;;1.02;0.85;;;;;;;-145.06;0.00;60892.56;4899200;28;20262;-87
2022/02/03 08:05:35;;;;;;;1.15;0.98;;;;;;;-145.06;0.00;60892.56;4905681;28;20040;-88
2022/02/03 08:08:28;;;;;;;1.20;0.90;;;;;;;-145.06;0.00;60892.56;4900500;28;20040;-89
2022/02/03 08:11:12;;;;;;;0.75;0.73;;;;;;;-145.06;0.00;60892.56;4906115;28;20063;-89
2022/02/03 08:14:03;;;;;;;1.02;0.90;;;;;;;9.27;0.00;60892.56;4906247;28;20028;-89
2022/02/03 08:17:07;;;;;;;1.20;1.00;;;;;;;-145.06;0.00;60892.56;4902484;28;20028;-89
2022/02/03 08:20:01;;;;;;;0.75;0.75;;;;;;;9.30;0.00;60892.56;4900294;28;20478;-89
2022/02/03 08:22:51;;;;;;;1.23;0.97;;;;;;;-145.06;0.00;60892.56;4899430;28;20091;-89
2022/02/03 08:25:30;;;;;;;0.88;0.80;;;;;;;-145.06;0.00;60892.56;4903655;28;20273;-88
2022/02/03 08:29:12;;;;;;;1.08;0.90;;;;;;;10.68;0.00;60892.56;4900999;28;20040;-89
2022/02/03 08:31:20;;;;;;;0.93;0.77;;;;;;;-145.06;0.00;60892.56;4898035;28;20040;-90
2022/02/03 08:33:59;;;;;;;1.15;1.05;;;;;;;-145.06;0.00;60892.56;4900000;28;20037;-89
2022/02/03 08:36:38;;;;;;;0.70;0.70;;;;;;;9.25;0.00;60892.56;4898804;28;20775;-89
2022/02/03 08:39:20;;;;;;;1.23;0.93;;;;;;;9.38;0.00;60892.56;4899312;28;20036;-90
2022/02/03 08:41:59;;;;;;;0.90;0.80;;;;;;;-145.06;0.00;60892.56;4912577;28;20068;-88
2022/02/03 08:44:38;;;;;;;1.17;0.93;;;;;;;-145.06;0.00;60892.56;4913659;28;20032;-89
2022/02/03 08:47:17;;;;;;;0.70;0.67;;;;;;;9.38;0.00;60892.56;4916370;28;20020;-89
2022/02/03 08:49:56;;;;;;;1.40;1.00;;;;;;;-145.06;0.00;60892.56;4896093;28;20164;-89
2022/02/03 09:59:10;;;;;;;0.75;0.70;;;;;;;-145.06;0.00;60892.56;4899531;28;20028;-89
2022/02/03 10:02:06;;;;;;;0.80;0.70;;;;;;;-145.06;0.00;60892.56;4897091;28;20032;-89
2022/02/03 10:04:53;;;;;;;0.75;0.70;;;;;;;-145.06;0.00;60892.56;4899418;28;20040;-89
2022/02/03 10:07:34;;;;;;;0.90;0.70;;;;;;;-145.06;0.00;60892.56;4900213;28;20032;-89
2022/02/03 10:10:13;;;;;;;1.33;0.73;;;;;;;-145.06;0.00;60892.56;4897898;28;20035;-89
2022/02/03 10:12:53;;;;;;;2.05;1.10;;;;;;;-145.06;0.00;60892.56;4902182;28;20044;-89
2022/02/03 10:15:32;;;;;;;0.85;0.82;;;;;;;187.52;0.00;60892.56;4900901;28;20032;-90
2022/02/03 10:18:30;;;;;;;1.00;0.90;;;;;;;-145.06;0.00;60892.56;4899893;28;20031;-90
2022/02/03 10:21:15;;;;;;;1.40;1.15;;;;;;;-145.06;0.00;60892.56;4902589;28;20028;-89
2022/02/03 10:24:03;;;;;;;2.13;1.15;;;;;;;8.97;0.00;60892.56;4898755;28;20032;-90
2022/02/03 10:26:50;;;;;;;1.48;1.20;;;;;;;-145.06;0.00;60892.56;4892586;28;20032;-90
2022/02/03 10:29:39;;;;;;;1.23;1.10;;;;;;;-145.06;0.00;60892.56;4898902;28;20378;-90
2022/02/03 10:32:18;;;;;;;1.40;1.20;;;;;;;-145.06;0.00;60892.56;4905444;28;20115;-90
2022/02/03 10:34:57;;;;;;;1.88;1.30;;;;;;;-145.06;0.00;60892.56;4897556;28;20036;-88
2022/02/03 10:37:43;;;;;;;1.75;1.42;;;;;;;-145.06;0.00;60892.56;4899518;28;20031;-89
2022/02/03 10:40:50;;;;;;;2.33;1.60;;;;;;;-145.06;0.00;60892.56;4902132;28;20037;-89
2022/02/03 10:43:53;;;;;;;1.77;1.40;;;;;;;-145.06;0.00;60892.56;4905113;28;20402;-90
2022/02/03 10:49:40;;;;;;;1.60;1.02;;;;;;;-145.06;0.00;60892.56;4898583;28;20032;-87
2022/02/03 10:55:40;;;;;;;1.25;1.15;;;;;;;-145.06;0.00;60892.56;4899511;28;20028;-87
2022/02/03 11:01:42;;;;;;;1.52;1.30;;;;;;;-145.06;0.00;60892.56;4898880;28;20036;-90
2022/02/03 11:07:33;;;;;;;1.00;0.85;;;;;;;-145.06;0.00;60892.56;4891810;28;20569;-90
2022/02/03 11:13:14;;;;;;;1.02;0.90;;;;;;;-145.06;0.00;60892.56;4903381;28;20039;-89
2022/02/03 11:15:53;;;;;;;1.15;0.88;;;;;;;-145.06;0.00;60892.56;4892707;28;20040;-89
2022/02/03 11:18:34;;;;;;;1.77;1.00;;;;;;;-145.06;0.00;60892.56;4896239;28;20040;-90
2022/02/03 11:21:15;;;;;;;1.27;1.00;;;;;;;-145.06;0.00;60892.56;4897239;28;20059;-90
2022/02/03 11:24:02;;;;;;;1.77;1.10;;;;;;;-145.06;0.00;60892.56;4899883;28;20032;-89
2022/02/03 11:27:14;;;;;;;1.38;1.00;;;;;;;-145.06;0.00;60892.56;4894451;28;20028;-90
2022/02/03 11:42:32;;;;;;;1.55;1.10;;;;;;;-145.06;0.00;60892.56;4901700;28;20443;-91
2022/02/03 12:19:43;;;;;;;1.70;1.30;;;;;;;-145.06;0.00;60892.56;4908584;28;20031;-90
2022/02/03 12:22:42;;;;;;;2.03;1.23;;;;;;;-145.06;0.00;60892.56;4906162;28;20051;-89
2022/02/03 12:25:39;;;;;;;2.17;1.45;;;;;;;-145.06;0.00;60892.56;4900578;28;20040;-90
2022/02/03 12:31:36;;;;;;;2.63;1.52;;;;;;;-145.06;0.00;60892.56;4902799;28;20031;-90
2022/02/03 12:42:44;;;;;;;2.17;1.67;;;;;;;-145.06;0.00;60892.56;4909298;28;20593;-91
2022/02/03 12:45:26;;;;;;;2.28;1.60;;;;;;;-145.06;0.00;60892.56;4906748;28;20028;-90
2022/02/03 12:48:05;;;;;;;2.47;1.77;;;;;;;-145.06;0.00;60892.56;4902583;28;20028;-89
2022/02/03 12:50:44;;;;;;;2.50;1.90;;;;;;;-145.06;0.00;60892.56;4904768;28;20036;-90
2022/02/03 12:53:33;;;;;;;2.42;1.70;;;;;;;-145.06;0.00;60892.56;4902535;28;20032;-90
2022/02/03 12:56:12;;;;;;;2.47;1.67;;;;;;;-145.06;0.00;60892.56;4906024;28;20059;-90
2022/02/03 12:59:01;;;;;;;1.90;1.70;;;;;;;-145.06;0.00;60892.56;4901658;28;20036;-89
2022/02/03 13:01:41;;;;;;;2.85;1.80;;;;;;;-145.06;0.00;60892.56;4897887;28;20640;-90
2022/02/03 13:04:22;;;;;;;3.33;2.05;;;;;;;-145.06;0.00;60892.56;4897373;28;20526;-89
2022/02/03 13:07:05;;;;;;;2.45;1.92;;;;;;;-145.06;0.00;60892.56;4901533;28;20028;-90
2022/02/03 13:09:53;;;;;;;2.80;2.00;;;;;;;-145.06;0.00;60892.56;4902079;28;20067;-91
2022/02/03 13:12:37;;;;;;;3.22;2.25;;;;;;;-145.06;0.00;60892.56;4907975;28;20114;-89
2022/02/03 13:15:29;;;;;;;3.20;2.30;;;;;;;-145.06;0.00;60892.56;4906294;28;20040;-89
2022/02/03 13:18:15;;;;;;;3.55;2.30;;;;;;;-145.06;0.00;60892.56;4899988;28;20040;-90
2022/02/03 13:21:06;;;;;;;3.00;2.05;;;;;;;8.08;0.00;60892.56;4901017;28;20023;-90
2022/02/03 13:23:51;;;;;;;3.58;2.13;;;;;;;-145.06;0.00;60892.56;4902565;28;20024;-90
2022/02/03 13:26:34;;;;;;;2.67;1.77;;;;;;;-145.06;0.00;60892.56;4897547;28;20024;-90
2022/02/03 13:29:20;;;;;;;2.42;1.90;;;;;;;8.07;0.00;60892.56;4893348;28;20371;-90
2022/02/03 13:32:07;;;;;;;2.83;2.03;;;;;;;8.03;0.00;60892.56;4896184;28;20025;-89
2022/02/03 13:35:04;;;;;;;2.28;1.90;;;;;;;-145.06;0.00;60892.56;4896543;28;20135;-89
2022/02/03 13:38:01;;;;;;;2.63;1.55;;;;;;;-145.06;0.00;60892.56;4899506;28;20114;-88
2022/02/03 13:40:40;;;;;;;2.28;1.70;;;;;;;-145.06;0.00;60892.56;4898924;28;20028;-89
2022/02/03 13:43:24;;;;;;;2.47;1.70;;;;;;;-145.06;0.00;60892.56;4906031;28;20032;-89
2022/02/03 13:46:03;;;;;;;3.10;1.77;;;;;;;-145.06;0.00;60892.56;4901292;28;20059;-89
2022/02/03 13:48:50;;;;;;;2.07;1.70;;;;;;;8.01;0.00;60892.56;4895134;28;20115;-90
2022/02/03 13:51:39;;;;;;;2.13;1.88;;;;;;;-145.06;0.00;60892.56;4894264;28;20274;-91
2022/02/03 13:54:49;;;;;;;2.92;1.65;;;;;;;8.00;0.00;60892.56;4904728;28;20032;-89
2022/02/03 14:13:16;;;;;;;3.05;1.98;;;;;;;10.68;0.00;60892.56;4907113;28;20525;-90
2022/02/03 14:21:38;;;;;;;3.30;1.80;;;;;;;8.08;0.00;60892.56;4900988;28;20032;-90
2022/02/03 14:27:26;;;;;;;3.78;2.17;;;;;;;8.08;0.00;60892.56;4898084;28;20033;-90
2022/02/03 14:30:15;;;;;;;3.30;2.08;;;;;;;-145.06;0.00;60892.56;4899652;28;20041;-90
2022/02/03 14:32:57;;;;;;;3.35;1.95;;;;;;;8.08;0.00;60892.56;4893364;28;20040;-90
2022/02/03 14:35:38;;;;;;;3.25;1.90;;;;;;;21.08;0.00;60892.56;4896510;28;20482;-90
2022/02/03 14:38:24;;;;;;;3.65;2.20;;;;;;;7.99;0.00;60892.56;4901171;28;20375;-89
2022/02/03 14:41:12;;;;;;;3.47;2.17;;;;;;;7.99;0.00;60892.56;4898594;28;20063;-90
2022/02/03 14:43:52;;;;;;;2.83;2.08;;;;;;;8.08;0.00;60892.56;4897330;28;20680;-91
2022/02/03 14:46:32;;;;;;;;;;;;;;;8.00;0.00;60892.56;4900820;28;20040;-91
2022/02/03 14:49:11;;;;;;;4.53;2.00;;;;;;;8.08;0.00;60892.56;4900465;28;19920;-91
2022/02/03 14:52:09;;;;;;;4.07;2.10;;;;;;;8.00;0.00;60892.56;4904439;28;20032;-92
2022/02/03 14:58:12;;;;;;;3.63;2.40;;;;;;;-145.06;0.00;60892.56;4900855;28;20028;-90
2022/02/03 15:00:52;;;;;;;5.15;2.65;;;;;;;-145.06;0.00;60892.56;4897330;28;20363;-90
2022/02/03 15:03:31;;;;;;;2.30;1.92;;;;;;;7.99;0.00;60892.56;4900568;28;20071;-90
2022/02/03 15:06:12;;;;;;;3.50;2.30;;;;;;;7.99;0.00;60892.56;4899981;28;20028;-90
2022/02/03 15:09:08;;;;;;;3.42;2.45;;;;;;;-145.06;0.00;60892.56;4894744;28;20506;-91
2022/02/03 15:14:26;;;;;;;4.88;2.92;;;;;;;-145.06;0.00;60892.56;4901526;28;20370;-89
2022/02/03 15:17:05;;;;;;;3.23;2.20;;;;;;;8.00;0.00;60892.56;4898817;28;20048;-90
2022/02/03 15:19:44;;;;;;;6.82;3.10;;;;;;;21.08;0.00;60892.56;4900543;28;20504;-89
2022/02/03 15:22:23;;;;;;;5.20;2.83;;;;;;;21.08;0.00;60892.56;4896364;28;20040;-90
2022/02/03 15:25:03;;;;;;;3.90;2.93;;;;;;;7.95;0.00;60892.56;4897387;28;20366;-90
2022/02/03 15:27:42;;;;;;;5.50;2.75;;;;;;;8.08;0.00;60892.56;4895669;28;20278;-91
2022/02/03 15:30:21;;;;;;;2.65;2.28;;;;;;;-145.06;0.00;60892.56;4901767;28;20122;-89
2022/02/03 15:33:00;;;;;;;4.47;2.50;;;;;;;-145.06;0.00;60892.56;4898772;28;20530;-91
2022/02/03 15:35:48;;;;;;;3.17;2.40;;;;;;;8.08;0.00;60892.56;4898160;28;20035;-91
2022/02/03 15:38:32;;;;;;;3.88;2.50;;;;;;;7.90;0.00;60892.56;4903299;28;20037;-90
2022/02/03 15:41:27;;;;;;;5.18;2.45;;;;;;;-145.06;0.00;60892.56;4901851;28;20032;-91
2022/02/03 15:44:06;;;;;;;3.50;2.17;;;;;;;10.68;0.00;60892.56;4912130;28;20024;-90
2022/02/03 15:46:59;;;;;;;3.30;2.23;;;;;;;7.92;0.00;60892.56;4923735;28;20029;-90
2022/02/03 16:18:43;;;;;;;3.28;2.03;;;;;;;-145.06;0.00;60892.56;4901235;28;20044;-90
2022/02/03 16:21:44;;;;;;;3.47;2.50;;;;;;;-145.06;0.00;60892.56;4910730;28;20035;-90
2022/02/03 16:24:37;;;;;;;3.17;2.45;;;;;;;-145.06;0.00;60892.56;4902745;28;20040;-91
2022/02/03 16:53:37;;;;;;;5.18;3.13;;;;;;;-145.06;0.00;60892.56;4895940;28;20036;-91
2022/02/03 16:56:17;;;;;;;3.53;2.95;;;;;;;-145.06;0.00;60892.56;4898677;28;20044;-91
2022/02/03 16:59:00;;;;;;;6.43;3.60;;;;;;;-145.06;0.00;60892.56;4900751;28;20430;-91
2022/02/03 17:01:39;;;;;;;4.20;3.00;;;;;;;-145.06;0.00;60892.56;4898262;28;20051;-91
2022/02/03 17:04:19;;;;;;;4.45;3.13;;;;;;;-145.06;0.00;60892.56;4901968;28;20036;-90
2022/02/03 17:06:59;;;;;;;5.40;3.40;;;;;;;-145.06;0.00;60892.56;4901215;28;20036;-91
2022/02/03 17:09:39;;;;;;;4.90;3.60;;;;;;;-145.06;0.00;60892.56;4897618;28;20370;-91
2022/02/03 17:12:19;;;;;;;6.10;3.30;;;;;;;-145.06;0.00;60892.56;4898106;28;20123;-90
2022/02/03 17:14:59;;;;;;;4.85;3.42;;;;;;;-145.06;0.00;60892.56;4897168;28;20032;-91
2022/02/03 17:17:41;;;;;;;5.15;2.83;;;;;;;-145.06;0.00;60892.56;4897204;28;20064;-91
2022/02/03 17:20:23;;;;;;;3.40;2.67;;;;;;;-145.06;0.00;60892.56;4896980;28;20092;-91
2022/02/03 17:23:06;;;;;;;6.13;3.17;;;;;;;-145.06;0.00;60892.56;4896758;28;20757;-90
2022/02/03 17:26:04;;;;;;;4.45;2.63;;;;;;;-145.06;0.00;60892.56;4894452;28;20032;-89
2022/02/03 17:28:52;;;;;;;5.57;3.65;;;;;;;-145.06;0.00;60892.56;4905483;28;20063;-90
2022/02/03 17:31:56;;;;;;;3.88;2.63;;;;;;;-145.06;0.00;60892.56;4894055;28;20067;-89
2022/02/03 18:10:12;;;;;;;4.13;3.10;;;;;;;-145.06;0.00;60892.56;4904686;28;20027;-89
2022/02/03 18:30:46;;;;;;;4.57;2.85;;;;;;;-145.06;0.00;60892.56;4885384;28;20047;-89
2022/02/03 18:53:53;;;;;;;3.60;2.80;;;;;;;-145.06;0.00;60892.56;4902048;28;20028;-90
2022/02/03 18:56:40;;;;;;;3.75;2.80;;;;;;;-145.06;0.00;60892.56;4900116;28;20020;-88
2022/02/03 20:06:11;;;;;;;4.50;3.60;;;;;;;-145.06;0.00;60892.56;4905377;28;20032;-89
2022/02/03 20:08:52;;;;;;;5.00;3.40;;;;;;;-145.06;0.00;60892.56;4908131;28;20044;-90
2022/02/03 20:11:34;;;;;;;4.82;3.67;;;;;;;-145.06;0.00;60892.56;4896795;28;20111;-89
2022/02/03 20:14:13;;;;;;;5.32;3.88;;;;;;;-145.06;0.00;60892.56;4898881;28;20748;-90
2022/02/03 20:16:52;;;;;;;6.13;4.00;;;;;;;-145.06;0.00;60892.56;4900697;28;20028;-89
2022/02/03 20:19:31;;;;;;;6.38;4.35;;;;;;;-145.06;0.00;60892.56;4905821;28;20028;-89
2022/02/03 20:22:10;;;;;;;4.43;3.53;;;;;;;-145.06;0.00;60892.56;4897498;28;20068;-90
2022/02/03 20:24:49;;;;;;;6.60;4.77;;;;;;;-145.06;0.00;60892.56;4897540;28;20032;-89
2022/02/03 20:27:28;;;;;;;5.18;4.05;;;;;;;-145.06;0.00;60892.56;4903982;28;20036;-90
2022/02/03 20:30:09;;;;;;;5.87;4.57;;;;;;;-145.06;0.00;60892.56;4903175;28;20431;-90
2022/02/03 20:32:49;;;;;;;5.47;4.22;;;;;;;-145.06;0.00;60892.56;4900148;28;20426;-89
2022/02/03 20:35:28;;;;;;;4.90;4.30;;;;;;;-145.06;0.00;60892.56;4895221;28;20035;-90
2022/02/03 20:38:08;;;;;;;5.85;4.53;;;;;;;-145.06;0.00;60892.56;4902875;28;20289;-88
2022/02/03 20:40:48;;;;;;;;;;;;;;;-145.06;0.00;60892.56;4905091;28;20075;-88
2022/02/03 20:43:27;;;;;;;4.45;3.30;;;;;;;-145.06;0.00;60892.56;4904898;28;19916;-89
2022/02/03 20:46:06;;;;;;;5.30;4.22;;;;;;;10.68;0.00;60892.56;4903432;28;20040;-91
2022/02/03 20:48:46;;;;;;;6.33;4.83;;;;;;;-145.06;0.00;60892.56;4902386;28;20037;-89
2022/02/03 20:51:24;;;;;;;4.95;4.00;;;;;;;-145.06;0.00;60892.56;4899379;28;20028;-91
2022/02/03 20:54:03;;;;;;;6.32;4.90;;;;;;;-145.06;0.00;60892.56;4897734;28;20032;-90
2022/02/03 20:56:43;;;;;;;5.85;4.20;;;;;;;-145.06;0.00;60892.56;4914746;28;20031;-89
2022/02/03 20:59:27;;;;;;;7.00;4.70;;;;;;;-145.06;0.00;60892.56;4901168;28;20033;-89
2022/02/03 21:02:10;;;;;;;7.28;5.10;;;;;;;-145.06;0.00;60892.56;4900865;28;20040;-89
2022/02/03 21:05:00;;;;;;;7.60;4.97;;;;;;;-145.06;0.00;60892.56;4903731;28;20106;-88
2022/02/03 21:07:42;;;;;;;5.55;4.32;;;;;;;-145.06;0.00;60892.56;4899416;28;20064;-88
2022/02/03 21:10:27;;;;;;;4.57;3.72;;;;;;;-145.06;0.00;60892.56;4901943;28;20489;-90
2022/02/03 21:13:06;;;;;;;5.70;4.43;;;;;;;-145.06;0.00;60892.56;4909308;28;20032;-90
2022/02/03 21:15:45;;;;;;;6.40;4.57;;;;;;;-145.06;0.00;60892.56;4899260;28;20040;-91
2022/02/03 21:18:24;;;;;;;5.17;4.30;;;;;;;-145.06;0.00;60892.56;4900809;28;20058;-90
2022/02/03 21:21:04;;;;;;;5.53;4.33;;;;;;;-145.06;0.00;60892.56;4901967;28;20032;-89
2022/02/03 21:23:43;;;;;;;;;;;;;;;-145.06;0.00;60892.56;4896937;28;20262;-89
2022/02/03 21:26:32;;;;;;;5.28;3.90;;;;;;;-145.06;0.00;60892.56;4904563;28;19923;-89
2022/02/03 21:29:12;;;;;;;4.80;3.63;;;;;;;-145.06;0.00;60892.56;4908092;28;20032;-89
2022/02/03 21:31:51;;;;;;;4.60;3.58;;;;;;;-145.06;0.00;60892.56;4903359;28;20399;-89
2022/02/03 21:34:30;;;;;;;6.00;4.70;;;;;;;-145.06;0.00;60892.56;4900114;28;20032;-90
2022/02/03 21:37:09;;;;;;;5.13;3.97;;;;;;;-145.06;0.00;60892.56;4900381;28;20058;-90
2022/02/03 21:39:54;;;;;;;4.38;3.70;;;;;;;-145.06;0.00;60892.56;4899817;28;20345;-89
2022/02/03 21:42:33;;;;;;;5.57;4.10;;;;;;;-145.06;0.00;60892.56;4899618;28;20489;-88
2022/02/03 21:45:16;;;;;;;5.50;4.28;;;;;;;-145.06;0.00;60892.56;4905173;28;20036;-91
2022/02/03 21:47:56;;;;;;;5.40;4.07;;;;;;;-145.06;0.00;60892.56;4897811;28;20031;-90
2022/02/03 21:50:39;;;;;;;4.60;3.70;;;;;;;-145.06;0.00;60892.56;4896447;28;20028;-89
2022/02/03 21:53:25;;;;;;;6.05;4.65;;;;;;;-145.06;0.00;60892.56;4905556;28;20037;-90
2022/02/03 21:56:04;;;;;;;6.43;4.50;;;;;;;-145.06;0.00;60892.56;4902286;28;20036;-89
2022/02/03 21:58:43;;;;;;;6.95;5.00;;;;;;;-145.06;0.00;60892.56;4899267;28;20139;-90
2022/02/03 22:01:26;;;;;;;6.33;5.13;;;;;;;-145.06;0.00;60892.56;4896421;28;20032;-90
2022/02/03 22:04:05;;;;;;;5.93;4.00;;;;;;;-145.06;0.00;60892.56;4904279;28;20617;-89
2022/02/03 22:06:44;;;;;;;6.43;3.95;;;;;;;-145.06;0.00;60892.56;4897663;28;20028;-89
2022/02/03 22:09:23;;;;;;;5.57;4.25;;;;;;;-145.06;0.00;60892.56;4903312;28;20035;-90
2022/02/03 22:12:02;;;;;;;4.47;3.83;;;;;;;-145.06;0.00;60892.56;4895380;28;20044;-89
2022/02/03 22:14:41;;;;;;;5.07;3.25;;;;;;;-145.06;0.00;60892.56;4900310;28;20036;-89
2022/02/03 22:17:20;;;;;;;3.90;3.10;;;;;;;-145.06;0.00;60892.56;4899082;28;20040;-89
2022/02/03 22:20:04;;;;;;;4.10;3.47;;;;;;;-145.06;0.00;60892.56;4901480;28;20055;-89
2022/02/03 22:22:58;;;;;;;3.97;2.83;;;;;;;-145.06;0.00;60892.56;4903461;28;20621;-89
2022/02/03 22:26:07;;;;;;;4.00;2.53;;;;;;;-145.06;0.00;60892.56;4900547;28;20378;-91
2022/02/03 22:29:21;;;;;;;4.35;3.28;;;;;;;-145.06;0.00;60892.56;4903267;28;20498;-89
2022/02/03 22:49:13;;;;;;;4.80;3.40;;;;;;;-145.06;0.00;60892.56;4903296;28;20029;-88
2022/02/03 22:51:53;;;;;;;4.43;3.20;;;;;;;-145.06;0.00;60892.56;4901034;28;20071;-91
2022/02/03 22:54:31;;;;;;;4.43;3.23;;;;;;;-145.06;0.00;60892.56;4900824;28;20032;-90
2022/02/03 22:57:10;;;;;;;3.97;3.40;;;;;;;-145.06;0.00;60892.56;4897638;28;20028;-90
2022/02/03 23:02:36;;;;;;;4.50;3.80;;;;;;;-145.06;0.00;60892.56;4904755;28;20027;-90
2022/02/03 23:05:17;;;;;;;4.03;2.70;;;;;;;-145.06;0.00;60892.56;4909547;28;20028;-89
2022/02/03 23:08:16;;;;;;;3.47;2.92;;;;;;;-145.06;0.00;60892.56;4914156;28;20028;-89
2022/02/03 23:19:46;;;;;;;3.53;2.80;;;;;;;7.92;0.00;60892.56;4914320;28;20103;-89
2022/02/03 23:22:26;;;;;;;3.80;2.78;;;;;;;7.81;0.00;60892.56;4922659;28;20027;-90
2022/02/03 23:25:09;;;;;;;4.07;2.90;;;;;;;7.81;0.00;60892.56;4909295;28;20032;-90
2022/02/03 23:30:29;;;;;;;4.28;2.40;;;;;;;7.92;0.00;60892.56;4910505;28;20711;-90
2022/02/03 23:33:08;;;;;;;4.65;3.30;;;;;;;21.08;0.00;60892.56;4911502;28;20107;-90
2022/02/03 23:35:47;;;;;;;3.67;2.90;;;;;;;7.82;0.00;60892.56;4907333;28;20104;-90
2022/02/03 23:44:25;;;;;;;3.40;2.38;;;;;;;-145.06;0.00;60892.56;4916032;28;20035;-89
